createdAt,value
2022-11-08T00:00:50.624Z,0.00
2022-11-08T00:01:50.686Z,0.00
2022-11-08T00:02:50.552Z,0.00
2022-11-08T00:03:50.462Z,0.00
2022-11-08T00:04:50.429Z,0.00
2022-11-08T00:05:50.353Z,0.00
2022-11-08T00:06:50.314Z,0.00
2022-11-08T00:07:50.247Z,0.00
2022-11-08T00:08:50.191Z,0.00
2022-11-08T00:09:50.141Z,0.00
2022-11-08T00:10:50.083Z,0.00
2022-11-08T00:11:50.074Z,0.00
2022-11-08T00:12:49.979Z,0.00
2022-11-08T00:13:49.930Z,0.00
2022-11-08T00:14:49.868Z,0.00
2022-11-08T00:15:49.814Z,0.00
2022-11-08T00:16:49.760Z,0.00
2022-11-08T00:17:49.719Z,0.00
2022-11-08T00:18:49.650Z,0.00
2022-11-08T00:19:49.595Z,0.00
2022-11-08T00:20:49.543Z,0.00
2022-11-08T00:21:49.503Z,0.00
2022-11-08T00:22:49.432Z,0.00
2022-11-08T00:23:49.380Z,0.00
2022-11-08T00:24:49.327Z,0.00
2022-11-08T00:25:49.283Z,0.00
2022-11-08T00:26:49.218Z,0.00
2022-11-08T00:27:49.164Z,0.00
2022-11-08T00:28:58.251Z,0.00
2022-11-08T00:29:49.051Z,0.00
2022-11-08T00:30:49.013Z,0.00
2022-11-08T00:31:48.947Z,0.00
2022-11-08T00:32:48.892Z,0.00
2022-11-08T00:33:48.836Z,0.00
2022-11-08T00:34:48.781Z,0.00
2022-11-08T00:35:48.743Z,0.00
2022-11-08T00:36:48.674Z,0.00
2022-11-08T00:37:48.618Z,0.00
2022-11-08T00:38:48.564Z,0.00
2022-11-08T00:39:48.512Z,0.00
2022-11-08T00:40:48.469Z,0.00
2022-11-08T00:41:48.405Z,0.00
2022-11-08T00:42:48.347Z,0.00
2022-11-08T00:43:48.315Z,0.00
2022-11-08T00:44:48.238Z,0.00
2022-11-08T00:45:48.182Z,0.00
2022-11-08T00:46:48.133Z,0.00
2022-11-08T00:47:48.076Z,0.00
2022-11-08T00:48:48.034Z,0.00
2022-11-08T00:49:47.981Z,0.00
2022-11-08T00:50:47.909Z,0.00
2022-11-08T00:51:47.861Z,0.00
2022-11-08T00:52:47.806Z,0.00
2022-11-08T00:53:47.760Z,0.00
2022-11-08T00:54:47.696Z,0.00
2022-11-08T00:55:47.640Z,0.00
2022-11-08T00:56:47.586Z,0.00
2022-11-08T00:57:59.187Z,0.00
2022-11-08T00:58:47.489Z,0.00
2022-11-08T00:59:47.423Z,0.00
2022-11-08T01:00:47.385Z,0.00
2022-11-08T01:01:47.438Z,0.00
2022-11-08T01:02:47.271Z,0.00
2022-11-08T01:03:47.286Z,0.00
2022-11-08T01:04:47.150Z,0.00
2022-11-08T01:05:47.090Z,0.00
2022-11-08T01:06:47.039Z,0.00
2022-11-08T01:07:46.985Z,0.00
2022-11-08T01:08:46.942Z,0.00
2022-11-08T01:09:46.874Z,0.00
2022-11-08T01:10:46.819Z,0.00
2022-11-08T01:11:46.766Z,0.00
2022-11-08T01:12:46.711Z,0.00
2022-11-08T01:13:46.669Z,0.00
2022-11-08T01:14:46.598Z,0.00
2022-11-08T01:15:46.701Z,0.00
2022-11-08T01:16:46.493Z,0.00
2022-11-08T01:17:46.433Z,0.00
2022-11-08T01:18:46.543Z,0.00
2022-11-08T01:19:46.324Z,0.00
2022-11-08T01:20:46.265Z,0.00
2022-11-08T01:21:46.216Z,0.00
2022-11-08T01:22:46.160Z,0.00
2022-11-08T01:23:46.122Z,0.00
2022-11-08T01:24:46.051Z,0.00
2022-11-08T01:25:46.013Z,0.00
2022-11-08T01:26:45.939Z,0.00
2022-11-08T01:27:45.885Z,0.00
2022-11-08T01:28:45.845Z,0.00
2022-11-08T01:29:45.776Z,0.00
2022-11-08T01:30:45.721Z,0.00
2022-11-08T01:31:45.668Z,0.00
2022-11-08T01:32:45.610Z,0.00
2022-11-08T01:33:50.833Z,0.00
2022-11-08T01:34:45.499Z,0.00
2022-11-08T01:35:45.447Z,0.00
2022-11-08T01:36:45.393Z,0.00
2022-11-08T01:37:45.334Z,0.00
2022-11-08T01:38:45.293Z,0.00
2022-11-08T01:39:45.225Z,0.00
2022-11-08T01:40:45.175Z,0.00
2022-11-08T01:41:45.113Z,0.00
2022-11-08T01:42:45.060Z,0.00
2022-11-08T01:43:45.020Z,0.00
2022-11-08T01:44:44.950Z,0.00
2022-11-08T01:45:44.912Z,0.00
2022-11-08T01:46:44.841Z,0.00
2022-11-08T01:47:44.786Z,0.00
2022-11-08T01:48:44.744Z,0.00
2022-11-08T01:49:44.688Z,0.00
2022-11-08T01:50:44.635Z,0.00
2022-11-08T01:51:44.566Z,0.00
2022-11-08T01:52:44.512Z,0.00
2022-11-08T01:53:44.470Z,0.00
2022-11-08T01:54:44.399Z,0.00
2022-11-08T01:55:44.363Z,0.00
2022-11-08T01:56:44.304Z,0.00
2022-11-08T01:57:44.235Z,0.00
2022-11-08T01:58:44.217Z,0.00
2022-11-08T01:59:44.141Z,0.00
2022-11-08T02:00:44.122Z,0.00
2022-11-08T02:01:44.146Z,0.00
2022-11-08T02:02:43.963Z,0.00
2022-11-08T02:03:43.931Z,0.00
2022-11-08T02:04:43.859Z,0.00
2022-11-08T02:05:43.792Z,0.00
2022-11-08T02:06:43.756Z,0.00
2022-11-08T02:07:43.684Z,0.00
2022-11-08T02:08:43.634Z,0.00
2022-11-08T02:09:43.573Z,0.00
2022-11-08T02:10:43.517Z,0.00
2022-11-08T02:11:43.465Z,0.00
2022-11-08T02:12:43.423Z,0.00
2022-11-08T02:13:43.366Z,0.00
2022-11-08T02:14:43.298Z,0.00
2022-11-08T02:15:43.257Z,0.00
2022-11-08T02:16:43.185Z,0.00
2022-11-08T02:17:43.132Z,0.00
2022-11-08T02:18:43.088Z,0.00
2022-11-08T02:19:43.020Z,0.00
2022-11-08T02:20:42.980Z,0.00
2022-11-08T02:21:42.908Z,0.00
2022-11-08T02:22:42.857Z,0.00
2022-11-08T02:23:42.832Z,0.00
2022-11-08T02:24:42.746Z,0.00
2022-11-08T02:25:42.687Z,0.00
2022-11-08T02:26:42.635Z,0.00
2022-11-08T02:27:42.592Z,0.00
2022-11-08T02:28:42.524Z,0.00
2022-11-08T02:29:42.479Z,0.00
2022-11-08T02:30:42.430Z,0.00
2022-11-08T02:31:42.357Z,0.00
2022-11-08T02:32:43.266Z,0.00
2022-11-08T02:33:42.260Z,0.00
2022-11-08T02:34:42.192Z,0.00
2022-11-08T02:35:42.134Z,0.00
2022-11-08T02:36:42.089Z,0.00
2022-11-08T02:37:42.038Z,0.00
2022-11-08T02:38:41.968Z,0.00
2022-11-08T02:39:41.914Z,0.00
2022-11-08T02:40:41.923Z,0.00
2022-11-08T02:41:41.803Z,0.00
2022-11-08T02:42:41.750Z,0.00
2022-11-08T02:43:41.694Z,0.00
2022-11-08T02:44:41.635Z,0.00
2022-11-08T02:45:41.595Z,0.00
2022-11-08T02:46:41.528Z,0.00
2022-11-08T02:47:41.471Z,0.00
2022-11-08T02:48:41.432Z,0.00
2022-11-08T02:49:41.359Z,0.00
2022-11-08T02:50:41.317Z,0.00
2022-11-08T02:51:41.254Z,0.00
2022-11-08T02:52:41.197Z,0.00
2022-11-08T02:53:41.158Z,0.00
2022-11-08T02:54:41.094Z,0.00
2022-11-08T02:55:41.030Z,0.00
2022-11-08T02:56:40.974Z,0.00
2022-11-08T02:57:40.917Z,0.00
2022-11-08T02:58:40.886Z,0.00
2022-11-08T02:59:40.809Z,0.00
2022-11-08T03:00:40.752Z,0.00
2022-11-08T03:01:40.859Z,0.00
2022-11-08T03:02:40.660Z,0.00
2022-11-08T03:03:40.585Z,0.00
2022-11-08T03:04:40.546Z,0.00
2022-11-08T03:05:40.484Z,0.00
2022-11-08T03:06:40.420Z,0.00
2022-11-08T03:07:40.379Z,0.00
2022-11-08T03:08:40.321Z,0.00
2022-11-08T03:09:40.254Z,0.00
2022-11-08T03:10:40.198Z,0.00
2022-11-08T03:11:40.143Z,0.00
2022-11-08T03:12:40.087Z,0.00
2022-11-08T03:13:40.042Z,0.00
2022-11-08T03:14:39.992Z,0.00
2022-11-08T03:15:39.927Z,0.00
2022-11-08T03:16:39.866Z,0.00
2022-11-08T03:17:39.809Z,0.00
2022-11-08T03:18:39.765Z,0.00
2022-11-08T03:19:39.697Z,0.00
2022-11-08T03:20:39.643Z,0.00
2022-11-08T03:21:39.588Z,0.00
2022-11-08T03:22:39.530Z,0.00
2022-11-08T03:23:39.492Z,0.00
2022-11-08T03:24:39.427Z,0.00
2022-11-08T03:25:39.368Z,0.00
2022-11-08T03:26:39.332Z,0.00
2022-11-08T03:27:39.258Z,0.00
2022-11-08T03:28:39.198Z,0.00
2022-11-08T03:29:39.157Z,0.00
2022-11-08T03:30:39.091Z,0.00
2022-11-08T03:31:39.033Z,0.00
2022-11-08T03:32:38.978Z,0.00
2022-11-08T03:33:38.925Z,0.00
2022-11-08T03:34:38.882Z,0.00
2022-11-08T03:35:38.810Z,0.00
2022-11-08T03:36:38.757Z,0.00
2022-11-08T03:37:38.704Z,0.00
2022-11-08T03:38:38.644Z,0.00
2022-11-08T03:39:38.603Z,0.00
2022-11-08T03:40:38.532Z,0.00
2022-11-08T03:41:38.492Z,0.00
2022-11-08T03:42:38.438Z,0.00
2022-11-08T03:43:38.367Z,0.00
2022-11-08T03:44:38.326Z,0.00
2022-11-08T03:45:38.254Z,0.00
2022-11-08T03:46:38.214Z,0.00
2022-11-08T03:47:38.147Z,0.00
2022-11-08T03:48:38.105Z,0.00
2022-11-08T03:49:38.035Z,0.00
2022-11-08T03:50:37.980Z,0.00
2022-11-08T03:51:37.920Z,0.00
2022-11-08T03:52:37.869Z,0.00
2022-11-08T03:53:37.825Z,0.00
2022-11-08T03:54:37.757Z,0.00
2022-11-08T03:55:37.700Z,0.00
2022-11-08T03:56:37.643Z,0.00
2022-11-08T03:57:37.603Z,0.00
2022-11-08T03:58:37.533Z,0.00
2022-11-08T03:59:37.666Z,0.00
2022-11-08T04:00:37.422Z,0.00
2022-11-08T04:01:37.653Z,0.00
2022-11-08T04:02:37.392Z,0.00
2022-11-08T04:03:37.255Z,0.00
2022-11-08T04:04:37.201Z,0.00
2022-11-08T04:05:37.145Z,0.00
2022-11-08T04:06:37.086Z,0.00
2022-11-08T04:07:37.045Z,0.00
2022-11-08T04:08:36.982Z,0.00
2022-11-08T04:09:36.938Z,0.00
2022-11-08T04:10:36.864Z,0.00
2022-11-08T04:11:36.812Z,0.00
2022-11-08T04:12:36.757Z,0.00
2022-11-08T04:13:36.722Z,0.00
2022-11-08T04:14:36.656Z,0.00
2022-11-08T04:15:36.588Z,0.00
2022-11-08T04:16:36.674Z,0.00
2022-11-08T04:17:36.479Z,0.00
2022-11-08T04:18:36.418Z,0.00
2022-11-08T04:19:36.380Z,0.00
2022-11-08T04:20:36.307Z,0.00
2022-11-08T04:21:36.266Z,0.00
2022-11-08T04:22:36.195Z,0.00
2022-11-08T04:23:36.141Z,0.00
2022-11-08T04:24:36.086Z,0.00
2022-11-08T04:25:36.042Z,0.00
2022-11-08T04:26:35.971Z,0.00
2022-11-08T04:27:35.919Z,0.00
2022-11-08T04:28:35.875Z,0.00
2022-11-08T04:29:35.810Z,0.00
2022-11-08T04:30:35.749Z,0.00
2022-11-08T04:31:35.694Z,0.00
2022-11-08T04:32:35.639Z,0.00
2022-11-08T04:33:35.597Z,0.00
2022-11-08T04:34:35.527Z,0.00
2022-11-08T04:35:35.473Z,0.00
2022-11-08T04:36:35.417Z,0.00
2022-11-08T04:37:35.362Z,0.00
2022-11-08T04:38:35.307Z,0.00
2022-11-08T04:39:35.266Z,0.00
2022-11-08T04:40:35.195Z,0.00
2022-11-08T04:41:35.139Z,0.00
2022-11-08T04:42:35.100Z,0.00
2022-11-08T04:43:35.027Z,0.00
2022-11-08T04:44:34.971Z,0.00
2022-11-08T04:45:34.930Z,0.00
2022-11-08T04:46:34.863Z,0.00
2022-11-08T04:47:40.135Z,0.00
2022-11-08T04:48:34.749Z,0.00
2022-11-08T04:49:34.719Z,0.00
2022-11-08T04:50:34.656Z,0.00
2022-11-08T04:51:34.586Z,0.00
2022-11-08T04:52:34.528Z,0.00
2022-11-08T04:53:34.488Z,0.00
2022-11-08T04:54:34.416Z,0.00
2022-11-08T04:55:34.362Z,0.00
2022-11-08T04:56:34.320Z,0.00
2022-11-08T04:57:34.248Z,0.00
2022-11-08T04:58:34.235Z,0.00
2022-11-08T04:59:34.141Z,0.00
2022-11-08T05:00:34.086Z,0.00
2022-11-08T05:01:34.144Z,0.00
2022-11-08T05:02:34.083Z,0.00
2022-11-08T05:03:33.918Z,0.00
2022-11-08T05:04:33.866Z,0.00
2022-11-08T05:05:33.805Z,0.00
2022-11-08T05:06:33.788Z,0.00
2022-11-08T05:07:33.695Z,0.00
2022-11-08T05:08:33.643Z,0.00
2022-11-08T05:09:33.586Z,0.00
2022-11-08T05:10:33.541Z,0.00
2022-11-08T05:11:33.475Z,0.00
2022-11-08T05:12:33.415Z,0.00
2022-11-08T05:13:33.529Z,0.00
2022-11-08T05:14:33.308Z,0.00
2022-11-08T05:15:33.252Z,0.00
2022-11-08T05:16:33.221Z,0.00
2022-11-08T05:17:33.139Z,0.00
2022-11-08T05:18:33.098Z,0.00
2022-11-08T05:19:33.033Z,0.00
2022-11-08T05:20:32.977Z,0.00
2022-11-08T05:21:32.917Z,0.00
2022-11-08T05:22:32.865Z,0.00
2022-11-08T05:23:32.825Z,0.00
2022-11-08T05:24:32.758Z,0.00
2022-11-08T05:25:32.698Z,0.00
2022-11-08T05:26:32.645Z,0.00
2022-11-08T05:27:32.586Z,0.00
2022-11-08T05:28:32.551Z,0.00
2022-11-08T05:29:32.490Z,0.00
2022-11-08T05:30:32.417Z,0.00
2022-11-08T05:31:32.363Z,0.00
2022-11-08T05:32:32.369Z,0.00
2022-11-08T05:33:32.251Z,0.00
2022-11-08T05:34:32.199Z,0.00
2022-11-08T05:35:32.143Z,0.00
2022-11-08T05:36:32.103Z,0.00
2022-11-08T05:37:32.048Z,0.00
2022-11-08T05:38:31.977Z,0.00
2022-11-08T05:39:32.465Z,0.00
2022-11-08T05:40:33.538Z,0.00
2022-11-08T05:41:31.833Z,0.00
2022-11-08T05:42:31.756Z,0.00
2022-11-08T05:43:31.701Z,0.00
2022-11-08T05:44:31.645Z,0.00
2022-11-08T05:45:31.596Z,4.00
2022-11-08T05:46:31.548Z,0.00
2022-11-08T05:47:31.479Z,0.00
2022-11-08T05:48:31.421Z,4.00
2022-11-08T05:49:31.365Z,0.00
2022-11-08T05:50:31.313Z,4.00
2022-11-08T05:51:31.718Z,4.00
2022-11-08T05:52:31.206Z,4.00
2022-11-08T05:53:31.157Z,4.00
2022-11-08T05:54:31.104Z,4.00
2022-11-08T05:55:31.035Z,8.00
2022-11-08T05:56:30.979Z,8.00
2022-11-08T05:57:30.920Z,8.00
2022-11-08T05:58:30.867Z,12.00
2022-11-08T05:59:30.829Z,16.00
2022-11-08T06:00:30.758Z,16.00
2022-11-08T06:01:30.746Z,20.00
2022-11-08T06:02:30.790Z,24.00
2022-11-08T06:03:31.151Z,28.00
2022-11-08T06:04:30.590Z,32.00
2022-11-08T06:05:30.478Z,36.00
2022-11-08T06:06:30.422Z,44.00
2022-11-08T06:07:30.367Z,48.00
2022-11-08T06:08:30.332Z,56.00
2022-11-08T06:09:30.255Z,60.00
2022-11-08T06:10:30.199Z,72.00
2022-11-08T06:11:30.143Z,76.00
2022-11-08T06:12:30.093Z,88.00
2022-11-08T06:13:30.262Z,96.00
2022-11-08T06:14:29.982Z,112.00
2022-11-08T06:15:29.936Z,128.00
2022-11-08T06:16:29.879Z,148.00
2022-11-08T06:17:30.451Z,160.00
2022-11-08T06:18:29.753Z,172.00
2022-11-08T06:19:29.698Z,188.00
2022-11-08T06:20:29.657Z,204.00
2022-11-08T06:21:29.586Z,220.00
2022-11-08T06:22:29.652Z,244.00
2022-11-08T06:23:29.485Z,268.00
2022-11-08T06:24:29.424Z,296.00
2022-11-08T06:25:29.364Z,324.00
2022-11-08T06:26:29.327Z,352.00
2022-11-08T06:27:29.257Z,388.00
2022-11-08T06:28:29.211Z,420.00
2022-11-08T06:29:29.137Z,460.00
2022-11-08T06:30:29.087Z,512.00
2022-11-08T06:31:29.028Z,560.00
2022-11-08T06:32:28.973Z,608.00
2022-11-08T06:33:28.918Z,656.00
2022-11-08T06:34:28.874Z,704.00
2022-11-08T06:35:28.853Z,756.00
2022-11-08T06:36:28.750Z,808.00
2022-11-08T06:37:28.694Z,872.00
2022-11-08T06:38:28.634Z,936.00
2022-11-08T06:39:28.601Z,980.00
2022-11-08T06:40:28.523Z,1024.00
2022-11-08T06:41:28.483Z,1072.00
2022-11-08T06:42:28.425Z,1112.00
2022-11-08T06:43:28.635Z,1148.00
2022-11-08T06:44:28.319Z,1184.00
2022-11-08T06:45:28.244Z,1228.00
2022-11-08T06:46:28.188Z,1268.00
2022-11-08T06:47:28.134Z,1312.00
2022-11-08T06:48:34.046Z,1360.00
2022-11-08T06:49:28.023Z,1396.00
2022-11-08T06:50:27.984Z,1428.00
2022-11-08T06:51:27.987Z,1484.00
2022-11-08T06:52:27.856Z,1584.00
2022-11-08T06:53:27.820Z,1772.00
2022-11-08T06:54:27.746Z,1944.00
2022-11-08T06:55:27.687Z,2092.00
2022-11-08T06:56:27.647Z,2260.00
2022-11-08T06:57:27.584Z,2412.00
2022-11-08T06:58:27.553Z,2588.00
2022-11-08T06:59:27.466Z,2852.00
2022-11-08T07:00:27.416Z,3240.00
2022-11-08T07:01:27.512Z,3808.00
2022-11-08T07:02:27.462Z,5056.00
2022-11-08T07:03:27.241Z,8000.00
2022-11-08T07:04:27.190Z,11676.00
2022-11-08T07:05:27.132Z,16768.00
2022-11-08T07:06:27.090Z,16864.00
2022-11-08T07:07:27.019Z,10428.00
2022-11-08T07:08:26.965Z,11676.00
2022-11-08T07:09:26.909Z,13088.00
2022-11-08T07:10:26.856Z,5596.00
2022-11-08T07:11:26.812Z,7472.00
2022-11-08T07:12:26.745Z,10824.00
2022-11-08T07:13:26.692Z,9884.00
2022-11-08T07:14:26.653Z,18176.00
2022-11-08T07:15:26.587Z,31264.00
2022-11-08T07:16:26.549Z,42656.00
2022-11-08T07:17:26.474Z,42560.00
2022-11-08T07:18:26.466Z,31456.00
2022-11-08T07:19:26.365Z,32672.00
2022-11-08T07:20:26.323Z,44800.00
2022-11-08T07:21:26.275Z,39072.00
2022-11-08T07:22:26.210Z,44736.00
2022-11-08T07:23:26.155Z,52480.00
2022-11-08T07:24:26.101Z,44896.00
2022-11-08T07:25:26.067Z,47552.00
2022-11-08T07:26:26.001Z,56640.00
2022-11-08T07:27:25.948Z,59104.00
2022-11-08T07:28:25.912Z,56352.00
2022-11-08T07:29:25.847Z,45632.00
2022-11-08T07:30:25.799Z,55008.00
2022-11-08T07:31:25.777Z,55968.00
2022-11-08T07:32:25.715Z,48768.00
2022-11-08T07:33:25.649Z,45632.00
2022-11-08T07:34:25.621Z,60960.00
2022-11-08T07:35:25.562Z,58336.00
2022-11-08T07:36:25.509Z,64672.00
2022-11-08T07:37:25.455Z,64448.00
2022-11-08T07:38:25.427Z,69312.00
2022-11-08T07:39:25.367Z,69312.00
2022-11-08T07:40:25.339Z,59200.00
2022-11-08T07:41:25.272Z,60640.00
2022-11-08T07:42:30.737Z,59200.00
2022-11-08T07:43:25.479Z,58464.00
2022-11-08T07:44:25.137Z,54560.00
2022-11-08T07:45:25.089Z,49280.00
2022-11-08T07:46:25.050Z,54528.00
2022-11-08T07:47:25.014Z,44512.00
2022-11-08T07:48:24.959Z,56768.00
2022-11-08T07:49:24.911Z,78144.00
2022-11-08T07:50:24.875Z,42656.00
2022-11-08T07:51:24.836Z,27808.00
2022-11-08T07:52:24.782Z,15840.00
2022-11-08T07:53:24.733Z,8296.00
2022-11-08T07:54:24.705Z,8104.00
2022-11-08T07:55:24.662Z,9952.00
2022-11-08T07:56:24.612Z,17632.00
2022-11-08T07:57:24.561Z,20384.00
2022-11-08T07:58:24.508Z,9228.00
2022-11-08T07:59:24.462Z,24448.00
2022-11-08T08:00:24.418Z,27008.00
2022-11-08T08:01:24.426Z,41184.00
2022-11-08T08:02:24.402Z,53984.00
2022-11-08T08:03:24.695Z,52128.00
2022-11-08T08:04:24.229Z,81408.00
2022-11-08T08:05:24.179Z,53856.00
2022-11-08T08:06:24.150Z,28256.00
2022-11-08T08:07:24.095Z,19616.00
2022-11-08T08:08:24.043Z,17056.00
2022-11-08T08:09:23.996Z,15808.00
2022-11-08T08:10:23.981Z,25888.00
2022-11-08T08:11:24.395Z,11156.00
2022-11-08T08:12:23.856Z,7312.00
2022-11-08T08:13:23.807Z,6116.00
2022-11-08T08:14:23.790Z,5412.00
2022-11-08T08:15:23.715Z,4952.00
2022-11-08T08:16:23.666Z,4760.00
2022-11-08T08:17:23.618Z,4624.00
2022-11-08T08:18:23.585Z,4716.00
2022-11-08T08:19:23.531Z,4968.00
2022-11-08T08:20:23.489Z,5412.00
2022-11-08T08:21:23.427Z,5936.00
2022-11-08T08:22:23.393Z,5940.00
2022-11-08T08:23:23.346Z,11012.00
2022-11-08T08:24:23.279Z,9652.00
2022-11-08T08:25:23.231Z,9128.00
2022-11-08T08:26:23.196Z,10092.00
2022-11-08T08:27:23.131Z,12708.00
2022-11-08T08:28:23.082Z,22144.00
2022-11-08T08:29:23.031Z,19520.00
2022-11-08T08:30:23.013Z,23232.00
2022-11-08T08:31:22.949Z,19584.00
2022-11-08T08:32:22.898Z,21312.00
2022-11-08T08:33:28.291Z,19232.00
2022-11-08T08:34:22.788Z,13296.00
2022-11-08T08:35:22.745Z,10152.00
2022-11-08T08:36:22.699Z,12824.00
2022-11-08T08:37:22.682Z,28832.00
2022-11-08T08:38:22.590Z,18816.00
2022-11-08T08:39:22.542Z,19456.00
2022-11-08T08:40:22.494Z,16480.00
2022-11-08T08:41:22.460Z,12756.00
2022-11-08T08:42:22.393Z,14272.00
2022-11-08T08:43:22.634Z,16192.00
2022-11-08T08:44:22.308Z,29952.00
2022-11-08T08:45:22.267Z,31168.00
2022-11-08T08:46:22.246Z,35424.00
2022-11-08T08:47:22.155Z,38656.00
2022-11-08T08:48:22.107Z,39872.00
2022-11-08T08:49:22.074Z,42848.00
2022-11-08T08:50:22.020Z,28576.00
2022-11-08T08:51:21.984Z,19104.00
2022-11-08T08:52:21.918Z,38272.00
2022-11-08T08:53:22.242Z,27616.00
2022-11-08T08:54:25.604Z,32832.00
2022-11-08T08:55:22.374Z,32384.00
2022-11-08T08:56:21.750Z,40640.00
2022-11-08T08:57:21.690Z,45344.00
2022-11-08T08:58:21.641Z,48064.00
2022-11-08T09:02:21.478Z,36832.00
2022-11-08T09:03:21.832Z,50272.00
2022-11-08T09:04:21.378Z,54528.00
2022-11-08T09:05:21.337Z,40704.00
2022-11-08T09:06:21.341Z,30432.00
2022-11-08T09:07:21.291Z,25472.00
2022-11-08T09:08:21.205Z,33024.00
2022-11-08T09:09:21.163Z,35456.00
2022-11-08T09:10:21.120Z,29504.00
2022-11-08T09:11:21.082Z,27456.00
2022-11-08T09:12:21.049Z,32832.00
2022-11-08T09:13:21.181Z,30272.00
2022-11-08T09:14:20.949Z,28224.00
2022-11-08T09:15:20.906Z,29664.00
2022-11-08T09:16:22.314Z,33600.00
2022-11-08T09:17:20.821Z,38720.00
2022-11-08T09:18:20.863Z,38208.00
2022-11-08T09:19:20.734Z,37376.00
2022-11-08T09:20:20.707Z,37952.00
2022-11-08T09:21:20.689Z,27968.00
2022-11-08T09:22:20.604Z,13520.00
2022-11-08T09:23:20.689Z,10320.00
2022-11-08T09:24:20.522Z,32096.00
2022-11-08T09:25:20.478Z,34784.00
2022-11-08T09:26:20.436Z,8860.00
2022-11-08T09:27:20.388Z,7116.00
2022-11-08T09:28:20.371Z,8436.00
2022-11-08T09:29:20.307Z,18848.00
2022-11-08T09:30:20.259Z,35232.00
2022-11-08T09:31:20.230Z,25696.00
2022-11-08T09:32:33.327Z,32832.00
2022-11-08T09:33:20.524Z,31040.00
2022-11-08T09:34:21.689Z,26432.00
2022-11-08T09:35:20.037Z,23360.00
2022-11-08T09:36:20.009Z,18464.00
2022-11-08T09:37:19.948Z,15392.00
2022-11-08T09:38:20.166Z,13568.00
2022-11-08T09:39:19.881Z,12524.00
2022-11-08T09:40:19.828Z,11972.00
2022-11-08T09:41:19.774Z,11788.00
2022-11-08T09:42:19.731Z,9152.00
2022-11-08T09:43:20.171Z,8040.00
2022-11-08T09:44:19.672Z,8368.00
2022-11-08T09:45:19.602Z,9316.00
2022-11-08T09:46:19.575Z,9380.00
2022-11-08T09:47:19.517Z,8596.00
2022-11-08T09:48:19.475Z,7896.00
2022-11-08T09:49:19.432Z,9088.00
2022-11-08T09:50:19.398Z,6484.00
2022-11-08T09:51:19.358Z,6148.00
2022-11-08T09:52:19.296Z,5932.00
2022-11-08T09:53:19.563Z,6292.00
2022-11-08T09:54:19.710Z,5516.00
2022-11-08T09:55:19.172Z,5424.00
2022-11-08T09:56:19.121Z,5300.00
2022-11-08T09:57:19.073Z,5336.00
2022-11-08T09:58:19.039Z,6212.00
2022-11-08T09:59:18.978Z,5436.00
2022-11-08T10:00:18.932Z,5188.00
2022-11-08T10:01:21.175Z,5080.00
2022-11-08T10:02:18.938Z,4764.00
2022-11-08T10:03:19.242Z,4344.00
2022-11-08T10:04:18.748Z,4304.00
2022-11-08T10:05:18.701Z,4868.00
2022-11-08T10:06:18.663Z,4460.00
2022-11-08T10:07:18.697Z,4572.00
2022-11-08T10:08:18.554Z,5676.00
2022-11-08T10:09:18.525Z,6080.00
2022-11-08T10:10:18.462Z,5952.00
2022-11-08T10:11:18.405Z,4944.00
2022-11-08T10:12:18.374Z,7568.00
2022-11-08T10:13:18.432Z,4888.00
2022-11-08T10:14:18.262Z,4740.00
2022-11-08T10:15:18.220Z,4452.00
2022-11-08T10:16:18.166Z,4456.00
2022-11-08T10:17:18.127Z,4492.00
2022-11-08T10:18:18.071Z,4704.00
2022-11-08T10:19:18.032Z,5140.00
2022-11-08T10:20:17.968Z,6776.00
2022-11-08T10:21:17.934Z,6064.00
2022-11-08T10:22:17.882Z,6272.00
2022-11-08T10:23:18.081Z,6400.00
2022-11-08T10:24:17.771Z,5376.00
2022-11-08T10:25:17.722Z,5732.00
2022-11-08T10:26:20.545Z,8700.00
2022-11-08T10:27:17.621Z,7904.00
2022-11-08T10:28:17.573Z,5776.00
2022-11-08T10:29:17.523Z,8268.00
2022-11-08T10:30:17.475Z,8460.00
2022-11-08T10:31:17.436Z,8424.00
2022-11-08T10:32:17.375Z,8356.00
2022-11-08T10:33:17.671Z,8296.00
2022-11-08T10:34:17.278Z,7864.00
2022-11-08T10:35:17.229Z,7328.00
2022-11-08T10:36:17.199Z,7728.00
2022-11-08T10:37:17.129Z,7620.00
2022-11-08T10:38:17.113Z,7444.00
2022-11-08T10:39:17.033Z,7276.00
2022-11-08T10:40:16.985Z,6668.00
2022-11-08T10:41:16.936Z,6272.00
2022-11-08T10:42:17.430Z,5952.00
2022-11-08T10:43:16.838Z,6652.00
2022-11-08T10:44:16.793Z,6704.00
2022-11-08T10:45:16.747Z,6708.00
2022-11-08T10:46:16.710Z,6772.00
2022-11-08T10:47:16.647Z,6768.00
2022-11-08T10:48:16.869Z,6716.00
2022-11-08T10:49:16.558Z,6528.00
2022-11-08T10:50:16.501Z,6488.00
2022-11-08T10:51:16.456Z,6320.00
2022-11-08T10:52:16.406Z,5932.00
2022-11-08T10:53:16.681Z,5856.00
2022-11-08T10:54:16.311Z,5700.00
2022-11-08T10:55:16.259Z,5944.00
2022-11-08T10:56:16.212Z,5956.00
2022-11-08T10:57:16.176Z,5992.00
2022-11-08T10:58:16.397Z,5912.00
2022-11-08T10:59:16.067Z,5944.00
2022-11-08T11:00:16.017Z,5980.00
2022-11-08T11:01:16.147Z,5800.00
2022-11-08T11:02:15.978Z,5900.00
2022-11-08T11:03:15.883Z,5896.00
2022-11-08T11:04:15.824Z,5652.00
2022-11-08T11:05:15.797Z,5344.00
2022-11-08T11:06:15.726Z,5744.00
2022-11-08T11:07:15.727Z,5924.00
2022-11-08T11:08:15.884Z,5820.00
2022-11-08T11:09:15.581Z,5780.00
2022-11-08T11:10:15.531Z,5812.00
2022-11-08T11:11:15.494Z,5668.00
2022-11-08T11:12:15.435Z,5520.00
2022-11-08T11:13:15.457Z,5564.00
2022-11-08T11:14:19.365Z,5576.00
2022-11-08T11:15:15.288Z,5472.00
2022-11-08T11:16:15.239Z,5356.00
2022-11-08T11:17:15.229Z,5400.00
2022-11-08T11:18:15.486Z,5388.00
2022-11-08T11:19:15.094Z,5352.00
2022-11-08T11:20:15.041Z,5252.00
2022-11-08T11:21:14.994Z,5192.00
2022-11-08T11:22:14.944Z,5200.00
2022-11-08T11:23:14.911Z,5000.00
2022-11-08T11:24:17.845Z,5060.00
2022-11-08T11:25:14.804Z,5068.00
2022-11-08T11:26:14.749Z,5080.00
2022-11-08T11:27:14.702Z,5012.00
2022-11-08T11:28:14.829Z,4872.00
2022-11-08T11:29:14.617Z,4860.00
2022-11-08T11:30:14.559Z,4796.00
2022-11-08T11:31:14.505Z,4752.00
2022-11-08T11:32:14.475Z,4700.00
2022-11-08T11:33:14.454Z,4780.00
2022-11-08T11:34:14.375Z,4792.00
2022-11-08T11:35:14.316Z,4744.00
2022-11-08T11:36:14.267Z,4688.00
2022-11-08T11:37:14.217Z,4784.00
2022-11-08T11:38:14.276Z,4748.00
2022-11-08T11:39:14.134Z,4640.00
2022-11-08T11:40:14.074Z,4656.00
2022-11-08T11:41:14.092Z,4648.00
2022-11-08T11:42:39.386Z,4644.00
2022-11-08T11:43:13.927Z,4560.00
2022-11-08T11:44:13.878Z,4600.00
2022-11-08T11:45:13.831Z,4532.00
2022-11-08T11:46:13.792Z,4492.00
2022-11-08T11:47:13.732Z,4520.00
2022-11-08T11:48:13.698Z,4420.00
2022-11-08T11:49:13.650Z,4400.00
2022-11-08T11:50:13.585Z,4356.00
2022-11-08T11:51:13.596Z,4448.00
2022-11-08T11:52:13.486Z,4416.00
2022-11-08T11:53:13.438Z,4324.00
2022-11-08T11:54:13.389Z,4284.00
2022-11-08T11:55:13.362Z,4252.00
2022-11-08T11:56:13.295Z,3876.00
2022-11-08T11:57:13.243Z,4068.00
2022-11-08T11:58:13.198Z,3976.00
2022-11-08T11:59:13.145Z,3940.00
2022-11-08T12:00:13.134Z,3512.00
2022-11-08T12:01:14.657Z,2792.00
2022-11-08T12:02:13.038Z,3088.00
2022-11-08T12:03:12.959Z,4232.00
2022-11-08T12:04:12.916Z,4232.00
2022-11-08T12:05:12.867Z,4356.00
2022-11-08T12:06:12.808Z,4348.00
2022-11-08T12:07:12.870Z,4448.00
2022-11-08T12:08:12.705Z,4452.00
2022-11-08T12:09:12.655Z,4436.00
2022-11-08T12:10:12.624Z,4448.00
2022-11-08T12:11:12.558Z,4480.00
2022-11-08T12:12:12.509Z,4596.00
2022-11-08T12:13:12.459Z,3360.00
2022-11-08T12:14:12.430Z,3576.00
2022-11-08T12:15:12.362Z,3112.00
2022-11-08T12:16:12.322Z,2916.00
2022-11-08T12:17:12.270Z,2852.00
2022-11-08T12:18:15.441Z,2852.00
2022-11-08T12:19:12.181Z,2920.00
2022-11-08T12:20:12.121Z,3124.00
2022-11-08T12:21:12.070Z,4440.00
2022-11-08T12:22:12.034Z,4516.00
2022-11-08T12:23:11.972Z,4356.00
2022-11-08T12:24:11.921Z,2928.00
2022-11-08T12:25:11.885Z,2816.00
2022-11-08T12:26:11.824Z,4068.00
2022-11-08T12:27:11.776Z,3912.00
2022-11-08T12:28:11.725Z,3588.00
2022-11-08T12:29:11.688Z,3600.00
2022-11-08T12:30:11.752Z,3616.00
2022-11-08T12:31:11.587Z,3584.00
2022-11-08T12:32:11.540Z,3268.00
2022-11-08T12:33:11.476Z,2772.00
2022-11-08T12:34:11.424Z,2296.00
2022-11-08T12:35:11.391Z,2140.00
2022-11-08T12:36:11.328Z,2140.00
2022-11-08T12:37:11.292Z,2260.00
2022-11-08T12:38:11.234Z,2336.00
2022-11-08T12:39:11.184Z,2256.00